Ormsby, MN

03:52 PM CDT del 29 Luglio 2014 (GMT -0500)
Saint James Municipal (KJYG) Alt. 1066 ft | 43.99 °N, 94.56 °W | Change Station

Current weather conditions updated 17 minutes ago

Mostly Cloudy
Molto nuvoloso
79 °F
Sembra 79 °F
N
8
Vento Variabile Vento da OSO

Oggi si prevede un aumento della temperatura rispetto a ieri.

Oggi
Massima -- | Minima -- °F
--% Possibilità di precip.
Ieri
Massima -- | Minima -- °F
Precip. -- in
6:04 AM 8:45 PM
Luna crescente, 8% visible
Pressione 30.14 in
Visibilità 10.0 miglia
Nuvole Molto nuvoloso 5000 ft
Molto nuvoloso 6500 ft
Punto di rugiada 50 °F
Umidità 36%
Piovosità 0.00 in
Spessore del manto nevoso Non disponibile.
Raggi UV 4 fuori da 12
Polline 7.50 fuori da 12
Qualità dell'aria Non disponibile.
Flu Activity Non disponibile.
METAR KJYG 292035Z AUTO 25007KT 10SM BKN050 BKN065 26/10 A3014 RMK AO2

More Conditions Fewer Conditions

Pressione 30.14 in
Visibilità 10.0 miglia
Nuvole Molto nuvoloso 5000 ft
Molto nuvoloso 6500 ft
Punto di rugiada 50 °F
Umidità 36%
Piovosità 0.00 in
Spessore del manto nevoso Non disponibile.
Raggi UV 4 fuori da 12
Polline 7.50 fuori da 12
Qualità dell'aria Non disponibile.
Flu Activity Non disponibile.
METAR KJYG 292035Z AUTO 25007KT 10SM BKN050 BKN065 26/10 A3014 RMK AO2

More Conditions Fewer Conditions

10-Day Weather Forecast

Almanac

Astronomia

Jul. 29, 2014 Alba Tramonto
Ora attuale 06:04 CDT 20:45 CDT
Crepuscolo civile 05:30 CDT 21:18 CDT
Crepuscolo nautico 04:49 CDT 22:00 CDT
Crepuscolo astronomico 04:00 CDT 22:48 CDT
Luna 08:48 CDT 21:50 CDT
Estensione della luce visibile 15h 47m
Lunghezza del giorno
14h 41m
Tomorrow will be 2m 13s shorter.
Luna crescente, 8% of the Moon is Illuminated
Oggi
Luna crescente
Ago 3
Primo quarto
Ago 10
Luna piena
Ago 17
Ultimo quarto
Ago 25
Nuovo

Gli estremi di oggi

State Highs State Lows

Community

WunderPhotos

Upload Photos

1,738,859 foto caricate!

Nearby

Profondità neve

Stazione Profondità Altitudine
Non sono state evidenziate nuove nevicate

Attività sismica

Città  Distanza Mag. Data & Ora
Non sono state riportate attività sismiche nelle vicinanze.
Minimo Magnitudo Mostrato è 2.5.

Temperature delle acque costiere

Località Temperatura
Nessun dato dalle stazioni

Stazioni meteo nelle vicinanze

Ubicazione della stazione Temp. Indice di calore Punto di rugiada Umidità Vento Precip. Alt. Aggiornato Tipo
NuWay Coop - Trimont, Trimont, MN 75.3 °F 78 °F 52 °F 45% Nord  a  6.0 mph 0.00 in / hr 1220 ft 3:48 PM CDT Normale
MesoWest MTLAKE , Mountain Lake, MN 74 °F 72 °F - - Nord  a  - 0.00 in / hr 1286 ft 2:50 PM CDT MADIS
KC0NKL - Elm Creek Township, Sherburn, MN 75.9 °F 78 °F 54 °F 46% NO  a  0.9 mph 0.00 in / hr 1322 ft 3:52 PM CDT Sequenza Rapida
NuWay Coop - Welcome, Welcome, MN 74.8 °F 78 °F 55 °F 50% NO  a  4.0 mph 0.00 in / hr 1224 ft 3:45 PM CDT Normale
West of High School, Madelia, MN 77.9 °F 79 °F 58 °F 51% OSO  a  0.0 mph 0.00 in / hr 981 ft 3:52 PM CDT Sequenza Rapida

Show More Stations Show Fewer Stations